sensor_id;sensor_type;location;lat;lon;timestamp;pressure;altitude;pressure_sealevel;temperature;humidity
61292;BME280;47165;42.664;23.368;2023-04-01T00:02:06;94147.00;;;13.62;47.77
61292;BME280;47165;42.664;23.368;2023-04-01T00:04:31;94143.47;;;13.73;47.66
61292;BME280;47165;42.664;23.368;2023-04-01T00:06:57;94150.44;;;13.83;47.84
61292;BME280;47165;42.664;23.368;2023-04-01T00:09:23;94147.41;;;13.67;47.70
61292;BME280;47165;42.664;23.368;2023-04-01T00:11:48;94155.41;;;13.65;47.74
61292;BME280;47165;42.664;23.368;2023-04-01T00:14:14;94148.00;;;13.71;47.95
61292;BME280;47165;42.664;23.368;2023-04-01T00:16:39;94150.94;;;13.77;47.42
61292;BME280;47165;42.664;23.368;2023-04-01T00:19:05;94152.94;;;13.85;47.40
61292;BME280;47165;42.664;23.368;2023-04-01T00:21:31;94150.75;;;13.90;47.46
61292;BME280;47165;42.664;23.368;2023-04-01T00:23:56;94155.34;;;13.98;47.08
61292;BME280;47165;42.664;23.368;2023-04-01T00:26:23;94163.94;;;14.00;47.15
61292;BME280;47165;42.664;23.368;2023-04-01T00:28:50;94167.72;;;13.86;47.24
61292;BME280;47165;42.664;23.368;2023-04-01T00:31:16;94138.28;;;13.82;47.04
61292;BME280;47165;42.664;23.368;2023-04-01T00:33:41;94161.59;;;13.97;46.91
61292;BME280;47165;42.664;23.368;2023-04-01T00:36:09;94151.59;;;13.91;46.72
61292;BME280;47165;42.664;23.368;2023-04-01T00:38:36;94153.94;;;13.94;46.29
61292;BME280;47165;42.664;23.368;2023-04-01T00:41:03;94154.94;;;13.93;46.39
61292;BME280;47165;42.664;23.368;2023-04-01T00:43:28;94140.53;;;13.87;47.15
61292;BME280;47165;42.664;23.368;2023-04-01T00:45:54;94136.38;;;13.84;47.04
61292;BME280;47165;42.664;23.368;2023-04-01T00:48:23;94137.78;;;13.88;47.25
61292;BME280;47165;42.664;23.368;2023-04-01T00:50:54;94126.19;;;13.91;47.31
61292;BME280;47165;42.664;23.368;2023-04-01T00:53:22;94114.34;;;13.97;46.78
61292;BME280;47165;42.664;23.368;2023-04-01T00:55:55;94119.84;;;13.94;47.97
61292;BME280;47165;42.664;23.368;2023-04-01T00:58:25;94112.41;;;13.99;48.14
61292;BME280;47165;42.664;23.368;2023-04-01T01:00:53;94097.44;;;13.89;47.33
61292;BME280;47165;42.664;23.368;2023-04-01T01:03:20;94104.38;;;13.91;47.24
61292;BME280;47165;42.664;23.368;2023-04-01T01:11:35;94100.66;;;13.51;47.92
61292;BME280;47165;42.664;23.368;2023-04-01T01:16:41;94091.75;;;13.42;48.12
61292;BME280;47165;42.664;23.368;2023-04-01T01:19:39;94081.53;;;13.39;48.12
61292;BME280;47165;42.664;23.368;2023-04-01T01:27:25;94068.66;;;13.36;47.36
61292;BME280;47165;42.664;23.368;2023-04-01T01:30:12;94076.22;;;13.51;47.96
61292;BME280;47165;42.664;23.368;2023-04-01T01:35:35;94057.28;;;13.47;47.41
61292;BME280;47165;42.664;23.368;2023-04-01T01:38:06;94053.31;;;13.53;47.76
61292;BME280;47165;42.664;23.368;2023-04-01T01:40:34;94045.44;;;13.53;47.66
61292;BME280;47165;42.664;23.368;2023-04-01T01:43:05;94051.09;;;13.48;47.75
61292;BME280;47165;42.664;23.368;2023-04-01T01:45:34;94043.66;;;13.53;46.99
61292;BME280;47165;42.664;23.368;2023-04-01T01:48:02;94059.03;;;13.58;46.51
61292;BME280;47165;42.664;23.368;2023-04-01T01:50:30;94054.41;;;13.50;45.83
61292;BME280;47165;42.664;23.368;2023-04-01T01:53:01;94047.19;;;13.42;46.05
61292;BME280;47165;42.664;23.368;2023-04-01T01:55:36;94040.00;;;13.44;45.87
61292;BME280;47165;42.664;23.368;2023-04-01T01:58:13;94036.19;;;13.48;46.34
61292;BME280;47165;42.664;23.368;2023-04-01T02:00:43;94043.66;;;13.53;46.33
61292;BME280;47165;42.664;23.368;2023-04-01T02:03:12;94033.75;;;13.57;46.16
61292;BME280;47165;42.664;23.368;2023-04-01T02:05:39;94021.91;;;13.62;45.82
61292;BME280;47165;42.664;23.368;2023-04-01T02:08:17;94024.19;;;13.77;45.86
61292;BME280;47165;42.664;23.368;2023-04-01T02:10:49;94029.03;;;13.81;45.65
61292;BME280;47165;42.664;23.368;2023-04-01T02:13:30;94021.34;;;13.89;45.51
61292;BME280;47165;42.664;23.368;2023-04-01T02:16:03;94019.41;;;13.92;45.99
61292;BME280;47165;42.664;23.368;2023-04-01T02:18:34;94015.69;;;13.94;45.90
61292;BME280;47165;42.664;23.368;2023-04-01T02:21:02;94012.19;;;13.84;46.14
61292;BME280;47165;42.664;23.368;2023-04-01T02:23:32;94010.31;;;13.65;46.10
61292;BME280;47165;42.664;23.368;2023-04-01T02:26:00;94007.16;;;13.71;45.62
61292;BME280;47165;42.664;23.368;2023-04-01T02:28:27;94006.22;;;13.72;45.71
61292;BME280;47165;42.664;23.368;2023-04-01T02:30:53;93999.75;;;13.76;46.17
61292;BME280;47165;42.664;23.368;2023-04-01T02:33:20;94012.59;;;13.79;45.70
61292;BME280;47165;42.664;23.368;2023-04-01T02:35:46;94014.13;;;13.82;45.98
61292;BME280;47165;42.664;23.368;2023-04-01T02:38:12;94018.59;;;13.91;45.94
61292;BME280;47165;42.664;23.368;2023-04-01T02:40:45;94013.50;;;13.99;45.62
61292;BME280;47165;42.664;23.368;2023-04-01T02:43:10;94018.34;;;14.04;45.36
61292;BME280;47165;42.664;23.368;2023-04-01T02:45:36;94028.16;;;14.02;45.62
61292;BME280;47165;42.664;23.368;2023-04-01T02:48:03;94035.50;;;13.77;45.59
61292;BME280;47165;42.664;23.368;2023-04-01T02:50:28;94006.75;;;13.66;45.92
61292;BME280;47165;42.664;23.368;2023-04-01T02:52:54;94023.22;;;13.78;46.10
61292;BME280;47165;42.664;23.368;2023-04-01T02:55:19;94038.44;;;13.84;45.94
61292;BME280;47165;42.664;23.368;2023-04-01T02:57:45;94038.31;;;13.85;46.08
61292;BME280;47165;42.664;23.368;2023-04-01T03:00:10;94034.34;;;13.91;45.80
61292;BME280;47165;42.664;23.368;2023-04-01T03:02:38;94043.31;;;13.98;46.13
61292;BME280;47165;42.664;23.368;2023-04-01T03:05:05;94047.50;;;14.01;45.83
61292;BME280;47165;42.664;23.368;2023-04-01T03:07:31;94051.06;;;14.00;45.98
61292;BME280;47165;42.664;23.368;2023-04-01T03:09:56;94045.13;;;13.98;46.34
61292;BME280;47165;42.664;23.368;2023-04-01T03:12:22;94044.19;;;13.99;46.12
61292;BME280;47165;42.664;23.368;2023-04-01T03:14:47;94041.97;;;14.04;46.52
61292;BME280;47165;42.664;23.368;2023-04-01T03:17:13;94044.34;;;14.07;46.12
61292;BME280;47165;42.664;23.368;2023-04-01T03:19:38;94053.81;;;13.98;46.57
61292;BME280;47165;42.664;23.368;2023-04-01T03:22:03;94051.75;;;13.71;47.35
61292;BME280;47165;42.664;23.368;2023-04-01T03:24:29;94056.91;;;13.52;47.86
61292;BME280;47165;42.664;23.368;2023-04-01T03:26:54;94052.50;;;13.52;47.59
61292;BME280;47165;42.664;23.368;2023-04-01T03:29:20;94081.25;;;13.63;47.91
61292;BME280;47165;42.664;23.368;2023-04-01T03:31:45;94073.28;;;13.65;47.31
61292;BME280;47165;42.664;23.368;2023-04-01T03:34:11;94068.31;;;13.72;46.95
61292;BME280;47165;42.664;23.368;2023-04-01T03:36:36;94062.00;;;13.74;47.18
61292;BME280;47165;42.664;23.368;2023-04-01T03:39:02;94061.81;;;13.87;47.65
61292;BME280;47165;42.664;23.368;2023-04-01T03:41:28;94069.72;;;13.76;48.18
61292;BME280;47165;42.664;23.368;2023-04-01T03:43:54;94056.78;;;13.74;48.18
61292;BME280;47165;42.664;23.368;2023-04-01T03:46:20;94040.75;;;13.77;48.23
61292;BME280;47165;42.664;23.368;2023-04-01T03:48:46;94029.72;;;13.83;48.02
61292;BME280;47165;42.664;23.368;2023-04-01T03:51:12;94026.00;;;13.55;49.17
61292;BME280;47165;42.664;23.368;2023-04-01T03:53:37;94014.56;;;13.56;48.46
61292;BME280;47165;42.664;23.368;2023-04-01T03:56:06;94006.56;;;13.58;48.99
61292;BME280;47165;42.664;23.368;2023-04-01T03:58:32;93992.22;;;13.20;50.46
61292;BME280;47165;42.664;23.368;2023-04-01T04:00:57;93972.22;;;13.19;50.38
61292;BME280;47165;42.664;23.368;2023-04-01T04:03:23;93970.69;;;12.95;51.05
61292;BME280;47165;42.664;23.368;2023-04-01T04:05:49;93971.88;;;12.70;52.01
61292;BME280;47165;42.664;23.368;2023-04-01T04:08:15;93965.34;;;12.85;51.70
61292;BME280;47165;42.664;23.368;2023-04-01T04:10:41;93960.00;;;13.08;51.04
61292;BME280;47165;42.664;23.368;2023-04-01T04:13:08;93950.38;;;13.08;51.54
61292;BME280;47165;42.664;23.368;2023-04-01T04:15:33;93943.72;;;13.04;50.45
61292;BME280;47165;42.664;23.368;2023-04-01T04:17:58;93937.97;;;13.11;50.15
61292;BME280;47165;42.664;23.368;2023-04-01T04:20:24;93935.00;;;12.62;50.83
61292;BME280;47165;42.664;23.368;2023-04-01T04:22:50;93927.97;;;12.83;50.52
61292;BME280;47165;42.664;23.368;2023-04-01T04:25:15;93932.06;;;12.55;49.69
61292;BME280;47165;42.664;23.368;2023-04-01T04:27:41;93932.19;;;12.75;49.30
61292;BME280;47165;42.664;23.368;2023-04-01T04:30:08;93922.31;;;12.99;48.36
61292;BME280;47165;42.664;23.368;2023-04-01T04:32:34;93918.59;;;13.23;47.65
61292;BME280;47165;42.664;23.368;2023-04-01T04:35:00;93909.50;;;13.27;47.01
61292;BME280;47165;42.664;23.368;2023-04-01T04:37:25;93910.94;;;13.31;47.70
61292;BME280;47165;42.664;23.368;2023-04-01T04:39:51;93906.75;;;13.07;48.48
61292;BME280;47165;42.664;23.368;2023-04-01T04:42:17;93899.53;;;13.21;48.34
61292;BME280;47165;42.664;23.368;2023-04-01T04:44:42;93890.66;;;13.33;48.68
61292;BME280;47165;42.664;23.368;2023-04-01T04:47:07;93882.38;;;13.38;48.38
61292;BME280;47165;42.664;23.368;2023-04-01T04:49:33;93878.00;;;13.48;48.50
61292;BME280;47165;42.664;23.368;2023-04-01T04:51:58;93872.38;;;13.53;48.08
61292;BME280;47165;42.664;23.368;2023-04-01T04:54:24;93862.72;;;13.63;47.82
61292;BME280;47165;42.664;23.368;2023-04-01T04:56:52;93869.66;;;13.74;47.17
61292;BME280;47165;42.664;23.368;2023-04-01T04:59:18;93868.41;;;13.78;46.73
61292;BME280;47165;42.664;23.368;2023-04-01T05:01:44;93870.38;;;13.85;46.65
61292;BME280;47165;42.664;23.368;2023-04-01T05:04:09;93875.38;;;13.88;46.17
61292;BME280;47165;42.664;23.368;2023-04-01T05:06:35;93872.06;;;13.86;46.34
61292;BME280;47165;42.664;23.368;2023-04-01T05:09:00;93860.44;;;13.89;46.62
61292;BME280;47165;42.664;23.368;2023-04-01T05:11:26;93868.72;;;13.84;46.68
61292;BME280;47165;42.664;23.368;2023-04-01T05:13:51;93865.13;;;13.85;46.63
61292;BME280;47165;42.664;23.368;2023-04-01T05:16:19;93858.25;;;13.84;46.66
61292;BME280;47165;42.664;23.368;2023-04-01T05:18:45;93870.06;;;13.69;46.78
61292;BME280;47165;42.664;23.368;2023-04-01T05:21:13;93849.50;;;13.64;46.96
61292;BME280;47165;42.664;23.368;2023-04-01T05:23:39;93839.13;;;13.63;47.01
61292;BME280;47165;42.664;23.368;2023-04-01T05:26:10;93842.03;;;13.60;47.37
61292;BME280;47165;42.664;23.368;2023-04-01T05:28:36;93843.47;;;13.43;47.68
61292;BME280;47165;42.664;23.368;2023-04-01T05:31:04;93828.03;;;13.40;47.81
61292;BME280;47165;42.664;23.368;2023-04-01T05:33:30;93833.09;;;13.32;48.23
61292;BME280;47165;42.664;23.368;2023-04-01T05:35:56;93834.63;;;13.34;47.95
61292;BME280;47165;42.664;23.368;2023-04-01T05:38:22;93843.88;;;13.38;48.13
61292;BME280;47165;42.664;23.368;2023-04-01T05:40:47;93838.50;;;13.40;48.15
61292;BME280;47165;42.664;23.368;2023-04-01T05:43:13;93823.88;;;13.47;48.37
61292;BME280;47165;42.664;23.368;2023-04-01T05:45:38;93845.97;;;13.44;48.10
61292;BME280;47165;42.664;23.368;2023-04-01T05:48:04;93842.50;;;13.34;47.23
61292;BME280;47165;42.664;23.368;2023-04-01T05:50:30;93839.47;;;13.39;46.94
61292;BME280;47165;42.664;23.368;2023-04-01T05:52:56;93840.03;;;13.42;46.88
61292;BME280;47165;42.664;23.368;2023-04-01T05:55:21;93834.38;;;13.47;47.08
61292;BME280;47165;42.664;23.368;2023-04-01T05:57:47;93826.84;;;13.54;47.63
61292;BME280;47165;42.664;23.368;2023-04-01T06:00:15;93814.41;;;13.56;48.01
61292;BME280;47165;42.664;23.368;2023-04-01T06:02:40;93818.72;;;13.66;47.29
61292;BME280;47165;42.664;23.368;2023-04-01T06:07:36;93821.03;;;13.69;46.79
61292;BME280;47165;42.664;23.368;2023-04-01T06:10:01;93818.56;;;13.78;46.44
61292;BME280;47165;42.664;23.368;2023-04-01T06:12:41;93815.03;;;13.88;45.92
61292;BME280;47165;42.664;23.368;2023-04-01T06:15:23;93806.84;;;13.92;45.78
61292;BME280;47165;42.664;23.368;2023-04-01T06:29:44;93808.38;;;14.43;44.33
61292;BME280;47165;42.664;23.368;2023-04-01T06:45:56;93785.22;;;14.85;44.66
61292;BME280;47165;42.664;23.368;2023-04-01T06:48:41;93783.53;;;14.94;45.81
61292;BME280;47165;42.664;23.368;2023-04-01T06:54:10;93780.22;;;14.92;45.92
61292;BME280;47165;42.664;23.368;2023-04-01T06:56:41;93775.88;;;15.01;46.01
61292;BME280;47165;42.664;23.368;2023-04-01T06:59:28;93767.69;;;15.14;46.23
61292;BME280;47165;42.664;23.368;2023-04-01T07:02:02;93771.16;;;15.04;46.15
61292;BME280;47165;42.664;23.368;2023-04-01T07:04:34;93763.28;;;15.04;46.72
61292;BME280;47165;42.664;23.368;2023-04-01T07:07:24;93760.19;;;14.91;47.06
61292;BME280;47165;42.664;23.368;2023-04-01T07:09:55;93755.28;;;14.96;47.11
61292;BME280;47165;42.664;23.368;2023-04-01T07:15:18;93756.28;;;15.23;47.74
61292;BME280;47165;42.664;23.368;2023-04-01T07:17:46;93761.63;;;15.31;46.55
61292;BME280;47165;42.664;23.368;2023-04-01T07:20:30;93750.53;;;15.37;46.02
61292;BME280;47165;42.664;23.368;2023-04-01T07:22:59;93745.56;;;15.34;45.96
61292;BME280;47165;42.664;23.368;2023-04-01T07:25:30;93756.88;;;15.44;45.63
61292;BME280;47165;42.664;23.368;2023-04-01T07:28:05;93770.41;;;15.49;45.90
61292;BME280;47165;42.664;23.368;2023-04-01T07:33:29;93757.41;;;15.66;45.21
61292;BME280;47165;42.664;23.368;2023-04-01T07:36:03;93752.94;;;15.76;44.97
61292;BME280;47165;42.664;23.368;2023-04-01T07:38:41;93755.97;;;15.81;44.77
61292;BME280;47165;42.664;23.368;2023-04-01T07:43:54;93758.81;;;15.88;45.35
61292;BME280;47165;42.664;23.368;2023-04-01T07:46:45;93750.47;;;15.93;44.84
61292;BME280;47165;42.664;23.368;2023-04-01T07:52:08;93751.34;;;16.01;44.56
61292;BME280;47165;42.664;23.368;2023-04-01T07:54:50;93741.69;;;16.02;44.33
61292;BME280;47165;42.664;23.368;2023-04-01T07:57:32;93738.03;;;16.03;44.40
61292;BME280;47165;42.664;23.368;2023-04-01T08:03:21;93740.75;;;16.11;44.73
61292;BME280;47165;42.664;23.368;2023-04-01T08:05:59;93747.22;;;15.99;44.71
61292;BME280;47165;42.664;23.368;2023-04-01T08:22:32;93714.72;;;16.52;43.61
61292;BME280;47165;42.664;23.368;2023-04-01T08:25:04;93692.19;;;16.58;43.34
61292;BME280;47165;42.664;23.368;2023-04-01T08:27:47;93689.63;;;16.74;42.68
61292;BME280;47165;42.664;23.368;2023-04-01T08:30:25;93686.25;;;16.82;42.83
61292;BME280;47165;42.664;23.368;2023-04-01T08:33:16;93679.38;;;16.97;43.18
61292;BME280;47165;42.664;23.368;2023-04-01T08:36:14;93673.81;;;17.00;42.44
61292;BME280;47165;42.664;23.368;2023-04-01T08:38:44;93653.19;;;17.04;41.79
61292;BME280;47165;42.664;23.368;2023-04-01T08:52:44;93631.69;;;17.33;41.06
61292;BME280;47165;42.664;23.368;2023-04-01T09:03:26;93630.69;;;17.26;40.30
61292;BME280;47165;42.664;23.368;2023-04-01T09:08:44;93639.63;;;17.33;40.50
61292;BME280;47165;42.664;23.368;2023-04-01T09:11:59;93629.09;;;17.58;41.26
61292;BME280;47165;42.664;23.368;2023-04-01T09:23:08;93629.59;;;18.10;38.47
61292;BME280;47165;42.664;23.368;2023-04-01T09:39:17;93595.13;;;19.07;35.90
61292;BME280;47165;42.664;23.368;2023-04-01T09:44:37;93578.56;;;19.14;36.05
61292;BME280;47165;42.664;23.368;2023-04-01T09:47:43;93581.16;;;19.22;35.33
61292;BME280;47165;42.664;23.368;2023-04-01T09:53:19;93554.81;;;19.28;34.54
61292;BME280;47165;42.664;23.368;2023-04-01T10:21:16;93541.22;;;19.78;34.86
61292;BME280;47165;42.664;23.368;2023-04-01T10:35:02;93525.34;;;20.07;35.17
61292;BME280;47165;42.664;23.368;2023-04-01T10:59:26;93482.13;;;19.54;35.38
61292;BME280;47165;42.664;23.368;2023-04-01T11:36:24;93542.81;;;18.47;32.30
61292;BME280;47165;42.664;23.368;2023-04-01T11:47:56;93614.06;;;18.16;39.36
61292;BME280;47165;42.664;23.368;2023-04-01T12:10:17;93724.41;;;13.65;69.16
61292;BME280;47165;42.664;23.368;2023-04-01T12:16:15;93749.94;;;13.53;71.07
61292;BME280;47165;42.664;23.368;2023-04-01T12:19:20;93738.59;;;13.33;71.39
61292;BME280;47165;42.664;23.368;2023-04-01T12:24:44;93746.19;;;13.36;68.36
61292;BME280;47165;42.664;23.368;2023-04-01T12:30:22;93736.13;;;14.19;71.03
61292;BME280;47165;42.664;23.368;2023-04-01T12:35:22;93724.44;;;14.61;70.04
61292;BME280;47165;42.664;23.368;2023-04-01T12:38:03;93729.25;;;14.75;69.56
61292;BME280;47165;42.664;23.368;2023-04-01T12:55:56;93745.38;;;14.23;69.73
61292;BME280;47165;42.664;23.368;2023-04-01T13:12:24;93693.63;;;13.86;70.34
61292;BME280;47165;42.664;23.368;2023-04-01T13:17:22;93666.53;;;13.86;71.88
61292;BME280;47165;42.664;23.368;2023-04-01T13:25:06;93644.53;;;16.17;71.00
61292;BME280;47165;42.664;23.368;2023-04-01T13:27:42;93643.22;;;17.32;62.11
61292;BME280;47165;42.664;23.368;2023-04-01T13:30:25;93624.16;;;18.68;58.13
61292;BME280;47165;42.664;23.368;2023-04-01T13:35:46;93621.38;;;20.77;49.46
61292;BME280;47165;42.664;23.368;2023-04-01T13:43:51;93603.56;;;22.02;43.07
61292;BME280;47165;42.664;23.368;2023-04-01T13:52:09;93582.66;;;23.25;41.31
61292;BME280;47165;42.664;23.368;2023-04-01T14:00:38;93586.59;;;25.09;37.92
61292;BME280;47165;42.664;23.368;2023-04-01T14:11:12;93550.41;;;27.02;33.28
61292;BME280;47165;42.664;23.368;2023-04-01T14:38:42;93532.31;;;20.23;47.66
61292;BME280;47165;42.664;23.368;2023-04-01T14:49:39;93517.56;;;21.38;44.69
61292;BME280;47165;42.664;23.368;2023-04-01T14:54:48;93520.03;;;22.81;40.80
61292;BME280;47165;42.664;23.368;2023-04-01T14:57:23;93508.59;;;22.87;39.20
61292;BME280;47165;42.664;23.368;2023-04-01T15:02:31;93528.13;;;21.32;42.80
61292;BME280;47165;42.664;23.368;2023-04-01T15:05:07;93532.88;;;21.79;42.21
61292;BME280;47165;42.664;23.368;2023-04-01T15:25:00;93546.03;;;20.72;43.47
61292;BME280;47165;42.664;23.368;2023-04-01T15:36:08;93543.59;;;19.87;45.68
61292;BME280;47165;42.664;23.368;2023-04-01T15:41:07;93536.84;;;18.53;49.27
61292;BME280;47165;42.664;23.368;2023-04-01T15:43:48;93546.69;;;18.67;49.85
61292;BME280;47165;42.664;23.368;2023-04-01T15:59:41;93801.84;;;13.69;53.59
61292;BME280;47165;42.664;23.368;2023-04-01T16:11:24;93860.06;;;11.19;73.04
61292;BME280;47165;42.664;23.368;2023-04-01T16:14:14;93834.66;;;11.10;73.77
61292;BME280;47165;42.664;23.368;2023-04-01T16:16:47;93836.75;;;11.27;76.91
61292;BME280;47165;42.664;23.368;2023-04-01T16:22:38;93859.16;;;10.62;75.54
61292;BME280;47165;42.664;23.368;2023-04-01T16:25:33;93855.47;;;10.42;75.58
61292;BME280;47165;42.664;23.368;2023-04-01T16:28:27;93843.88;;;10.57;76.20
61292;BME280;47165;42.664;23.368;2023-04-01T16:33:39;93855.66;;;10.03;75.41
61292;BME280;47165;42.664;23.368;2023-04-01T16:41:29;93893.38;;;10.35;77.67
61292;BME280;47165;42.664;23.368;2023-04-01T16:44:10;93882.53;;;10.28;78.24
61292;BME280;47165;42.664;23.368;2023-04-01T16:46:40;93877.78;;;10.46;75.37
61292;BME280;47165;42.664;23.368;2023-04-01T16:51:44;93877.97;;;9.83;72.23
61292;BME280;47165;42.664;23.368;2023-04-01T17:12:50;93875.94;;;9.63;73.20
61292;BME280;47165;42.664;23.368;2023-04-01T17:18:18;93887.19;;;9.26;72.15
61292;BME280;47165;42.664;23.368;2023-04-01T17:24:36;93890.56;;;9.53;73.98
61292;BME280;47165;42.664;23.368;2023-04-01T17:27:30;93891.66;;;9.74;71.31
61292;BME280;47165;42.664;23.368;2023-04-01T17:33:25;93891.69;;;9.61;72.04
61292;BME280;47165;42.664;23.368;2023-04-01T17:36:21;93894.72;;;9.05;71.54
61292;BME280;47165;42.664;23.368;2023-04-01T17:50:09;93932.53;;;9.11;69.55
61292;BME280;47165;42.664;23.368;2023-04-01T18:17:06;93986.19;;;9.89;70.55
61292;BME280;47165;42.664;23.368;2023-04-01T18:22:43;93996.63;;;9.89;68.17
61292;BME280;47165;42.664;23.368;2023-04-01T18:25:30;93993.63;;;9.82;69.58
61292;BME280;47165;42.664;23.368;2023-04-01T18:28:26;93992.88;;;9.93;68.77
61292;BME280;47165;42.664;23.368;2023-04-01T18:39:10;93985.75;;;9.58;68.65
61292;BME280;47165;42.664;23.368;2023-04-01T18:52:51;93994.22;;;9.99;66.14
61292;BME280;47165;42.664;23.368;2023-04-01T18:55:34;93999.75;;;10.18;66.12
61292;BME280;47165;42.664;23.368;2023-04-01T18:58:20;94009.03;;;10.22;66.40
61292;BME280;47165;42.664;23.368;2023-04-01T19:03:48;94018.22;;;10.28;64.15
61292;BME280;47165;42.664;23.368;2023-04-01T19:06:21;94018.88;;;10.32;65.26
61292;BME280;47165;42.664;23.368;2023-04-01T19:08:48;94020.59;;;10.44;64.59
61292;BME280;47165;42.664;23.368;2023-04-01T19:11:23;94021.31;;;10.46;64.36
61292;BME280;47165;42.664;23.368;2023-04-01T19:19:34;94029.78;;;10.37;62.79
61292;BME280;47165;42.664;23.368;2023-04-01T19:22:54;94034.25;;;9.98;63.12
61292;BME280;47165;42.664;23.368;2023-04-01T19:25:35;94045.81;;;10.06;64.27
61292;BME280;47165;42.664;23.368;2023-04-01T19:28:23;94040.38;;;9.60;64.11
61292;BME280;47165;42.664;23.368;2023-04-01T19:31:20;94050.97;;;9.82;63.08
61292;BME280;47165;42.664;23.368;2023-04-01T19:34:01;94045.84;;;9.94;62.76
61292;BME280;47165;42.664;23.368;2023-04-01T19:36:50;94073.59;;;9.95;61.95
61292;BME280;47165;42.664;23.368;2023-04-01T19:39:31;94069.09;;;9.84;61.44
61292;BME280;47165;42.664;23.368;2023-04-01T19:42:28;94066.72;;;9.81;62.86
61292;BME280;47165;42.664;23.368;2023-04-01T19:51:07;94091.72;;;9.45;63.29
61292;BME280;47165;42.664;23.368;2023-04-01T19:56:21;94094.75;;;9.39;62.95
61292;BME280;47165;42.664;23.368;2023-04-01T20:01:44;94084.56;;;9.74;61.92
61292;BME280;47165;42.664;23.368;2023-04-01T20:04:25;94084.22;;;9.92;61.64
61292;BME280;47165;42.664;23.368;2023-04-01T20:12:41;94072.00;;;9.92;60.18
61292;BME280;47165;42.664;23.368;2023-04-01T20:17:52;94076.94;;;9.97;58.94
61292;BME280;47165;42.664;23.368;2023-04-01T20:20:21;94076.66;;;10.25;59.21
61292;BME280;47165;42.664;23.368;2023-04-01T20:25:39;94084.63;;;10.11;59.54
61292;BME280;47165;42.664;23.368;2023-04-01T20:47:14;94087.84;;;10.02;57.35
61292;BME280;47165;42.664;23.368;2023-04-01T20:57:32;94094.47;;;9.69;59.15
61292;BME280;47165;42.664;23.368;2023-04-01T21:16:14;94105.47;;;10.24;57.62
61292;BME280;47165;42.664;23.368;2023-04-01T21:21:55;94106.72;;;10.44;56.53
61292;BME280;47165;42.664;23.368;2023-04-01T21:44:22;94101.50;;;10.44;55.24
61292;BME280;47165;42.664;23.368;2023-04-01T22:06:42;94111.09;;;10.67;55.00
61292;BME280;47165;42.664;23.368;2023-04-01T22:12:14;94094.09;;;10.62;55.07
61292;BME280;47165;42.664;23.368;2023-04-01T22:14:51;94098.50;;;10.61;54.83
61292;BME280;47165;42.664;23.368;2023-04-01T22:20:46;94092.25;;;10.51;54.58
61292;BME280;47165;42.664;23.368;2023-04-01T22:30:01;94099.88;;;10.54;55.23
61292;BME280;47165;42.664;23.368;2023-04-01T22:32:23;94092.25;;;10.51;54.91
61292;BME280;47165;42.664;23.368;2023-04-01T22:37:37;94095.84;;;10.37;55.42
61292;BME280;47165;42.664;23.368;2023-04-01T22:40:29;94100.63;;;10.43;55.09
61292;BME280;47165;42.664;23.368;2023-04-01T22:43:06;94103.69;;;10.24;55.32
61292;BME280;47165;42.664;23.368;2023-04-01T22:48:49;94098.34;;;10.39;54.88
61292;BME280;47165;42.664;23.368;2023-04-01T22:51:38;94111.84;;;10.33;54.47
61292;BME280;47165;42.664;23.368;2023-04-01T22:54:36;94120.81;;;9.90;53.87
61292;BME280;47165;42.664;23.368;2023-04-01T22:57:10;94129.19;;;9.82;53.98
61292;BME280;47165;42.664;23.368;2023-04-01T22:59:45;94122.53;;;9.78;54.03
61292;BME280;47165;42.664;23.368;2023-04-01T23:02:15;94127.81;;;9.90;53.91
61292;BME280;47165;42.664;23.368;2023-04-01T23:04:45;94124.69;;;9.46;53.93
61292;BME280;47165;42.664;23.368;2023-04-01T23:10:17;94120.53;;;9.69;53.39
61292;BME280;47165;42.664;23.368;2023-04-01T23:12:45;94110.31;;;9.92;53.92
61292;BME280;47165;42.664;23.368;2023-04-01T23:15:13;94115.31;;;9.95;53.09
61292;BME280;47165;42.664;23.368;2023-04-01T23:20:47;94125.19;;;10.02;52.57
61292;BME280;47165;42.664;23.368;2023-04-01T23:23:33;94121.22;;;10.22;52.45
61292;BME280;47165;42.664;23.368;2023-04-01T23:28:57;94115.69;;;10.40;52.30
61292;BME280;47165;42.664;23.368;2023-04-01T23:31:38;94135.41;;;10.44;51.43
61292;BME280;47165;42.664;23.368;2023-04-01T23:36:45;94136.78;;;10.24;51.73
61292;BME280;47165;42.664;23.368;2023-04-01T23:40:02;94134.16;;;10.24;51.97
61292;BME280;47165;42.664;23.368;2023-04-01T23:42:32;94133.19;;;10.25;52.52
61292;BME280;47165;42.664;23.368;2023-04-01T23:45:24;94134.81;;;10.02;52.30
61292;BME280;47165;42.664;23.368;2023-04-01T23:47:51;94130.31;;;10.04;52.27
61292;BME280;47165;42.664;23.368;2023-04-01T23:50:22;94128.41;;;10.19;52.11
61292;BME280;47165;42.664;23.368;2023-04-01T23:52:57;94143.47;;;10.15;52.19
61292;BME280;47165;42.664;23.368;2023-04-01T23:55:27;94136.88;;;10.22;51.88
61292;BME280;47165;42.664;23.368;2023-04-01T23:58:25;94134.91;;;10.00;51.64
